sensor_id;sensor_type;location;lat;lon;timestamp;temperature;humidity
29345;DHT22;16339;48.748;2.222;2024-02-28T05:49:31;7.00;99.90
29345;DHT22;16339;48.748;2.222;2024-02-28T05:52:00;6.90;99.90
29345;DHT22;16339;48.748;2.222;2024-02-28T05:54:29;6.90;99.90
29345;DHT22;16339;48.748;2.222;2024-02-28T05:56:59;6.90;99.90
29345;DHT22;16339;48.748;2.222;2024-02-28T05:59:28;6.90;99.90
29345;DHT22;16339;48.748;2.222;2024-02-28T06:01:57;6.90;99.90
29345;DHT22;16339;48.748;2.222;2024-02-28T06:04:26;6.90;99.90
29345;DHT22;16339;48.748;2.222;2024-02-28T06:06:57;6.90;99.90
29345;DHT22;16339;48.748;2.222;2024-02-28T06:09:26;7.00;99.90
29345;DHT22;16339;48.748;2.222;2024-02-28T06:11:55;7.00;99.90
29345;DHT22;16339;48.748;2.222;2024-02-28T06:17:39;6.90;99.90
29345;DHT22;16339;48.748;2.222;2024-02-28T06:20:08;6.90;99.90
29345;DHT22;16339;48.748;2.222;2024-02-28T06:22:39;6.90;99.90
29345;DHT22;16339;48.748;2.222;2024-02-28T06:25:08;6.90;99.90
29345;DHT22;16339;48.748;2.222;2024-02-28T06:27:43;6.90;99.90
29345;DHT22;16339;48.748;2.222;2024-02-28T06:30:12;6.90;99.90
29345;DHT22;16339;48.748;2.222;2024-02-28T06:32:42;7.00;99.90
29345;DHT22;16339;48.748;2.222;2024-02-28T06:35:11;7.00;99.90
29345;DHT22;16339;48.748;2.222;2024-02-28T06:37:42;7.00;99.90
29345;DHT22;16339;48.748;2.222;2024-02-28T06:40:15;7.00;99.90
29345;DHT22;16339;48.748;2.222;2024-02-28T06:42:44;6.90;99.90
29345;DHT22;16339;48.748;2.222;2024-02-28T06:45:13;7.00;99.90
29345;DHT22;16339;48.748;2.222;2024-02-28T06:47:41;7.00;99.90
29345;DHT22;16339;48.748;2.222;2024-02-28T06:50:10;7.10;99.90
29345;DHT22;16339;48.748;2.222;2024-02-28T06:52:42;7.10;99.90
29345;DHT22;16339;48.748;2.222;2024-02-28T06:55:10;7.10;99.90
29345;DHT22;16339;48.748;2.222;2024-02-28T06:57:41;7.20;99.90
29345;DHT22;16339;48.748;2.222;2024-02-28T07:00:11;7.10;99.90
29345;DHT22;16339;48.748;2.222;2024-02-28T07:02:40;7.10;99.90
29345;DHT22;16339;48.748;2.222;2024-02-28T07:05:09;7.00;99.90
29345;DHT22;16339;48.748;2.222;2024-02-28T07:07:37;7.00;99.90
29345;DHT22;16339;48.748;2.222;2024-02-28T07:10:10;7.00;99.90
29345;DHT22;16339;48.748;2.222;2024-02-28T07:12:39;7.00;99.90
29345;DHT22;16339;48.748;2.222;2024-02-28T07:15:08;7.00;99.90
29345;DHT22;16339;48.748;2.222;2024-02-28T07:17:37;7.00;99.90
29345;DHT22;16339;48.748;2.222;2024-02-28T07:20:06;6.90;99.90
29345;DHT22;16339;48.748;2.222;2024-02-28T07:22:35;7.00;99.90
29345;DHT22;16339;48.748;2.222;2024-02-28T07:25:05;7.00;99.90
29345;DHT22;16339;48.748;2.222;2024-02-28T07:27:36;7.10;99.90
29345;DHT22;16339;48.748;2.222;2024-02-28T07:30:06;7.10;99.90
29345;DHT22;16339;48.748;2.222;2024-02-28T07:32:35;7.20;99.90
29345;DHT22;16339;48.748;2.222;2024-02-28T07:35:05;7.20;99.90
29345;DHT22;16339;48.748;2.222;2024-02-28T07:37:34;7.30;99.90
29345;DHT22;16339;48.748;2.222;2024-02-28T07:40:04;7.30;99.90
29345;DHT22;16339;48.748;2.222;2024-02-28T07:42:36;7.30;99.90
29345;DHT22;16339;48.748;2.222;2024-02-28T07:45:05;7.40;99.90
29345;DHT22;16339;48.748;2.222;2024-02-28T07:47:34;7.40;99.90
29345;DHT22;16339;48.748;2.222;2024-02-28T07:50:03;7.40;99.90
29345;DHT22;16339;48.748;2.222;2024-02-28T07:52:32;7.40;99.90
29345;DHT22;16339;48.748;2.222;2024-02-28T07:55:03;7.50;99.90
29345;DHT22;16339;48.748;2.222;2024-02-28T07:57:35;7.50;99.90
29345;DHT22;16339;48.748;2.222;2024-02-28T08:00:05;7.60;99.90
29345;DHT22;16339;48.748;2.222;2024-02-28T08:02:34;7.70;99.90
29345;DHT22;16339;48.748;2.222;2024-02-28T08:05:05;7.80;99.90
29345;DHT22;16339;48.748;2.222;2024-02-28T08:07:34;7.80;99.90
29345;DHT22;16339;48.748;2.222;2024-02-28T08:10:03;7.90;99.90
29345;DHT22;16339;48.748;2.222;2024-02-28T08:12:32;7.90;99.90
29345;DHT22;16339;48.748;2.222;2024-02-28T08:15:04;7.90;99.90
29345;DHT22;16339;48.748;2.222;2024-02-28T08:17:33;8.00;99.90
29345;DHT22;16339;48.748;2.222;2024-02-28T08:20:02;8.00;99.90
29345;DHT22;16339;48.748;2.222;2024-02-28T08:22:32;8.10;99.90
29345;DHT22;16339;48.748;2.222;2024-02-28T08:25:00;8.10;99.90
29345;DHT22;16339;48.748;2.222;2024-02-28T08:27:29;8.20;99.90
29345;DHT22;16339;48.748;2.222;2024-02-28T08:30:00;8.30;99.90
29345;DHT22;16339;48.748;2.222;2024-02-28T08:32:31;8.50;99.90
29345;DHT22;16339;48.748;2.222;2024-02-28T08:35:00;8.60;99.90
29345;DHT22;16339;48.748;2.222;2024-02-28T08:37:28;8.60;99.90
29345;DHT22;16339;48.748;2.222;2024-02-28T08:39:57;8.70;99.90
29345;DHT22;16339;48.748;2.222;2024-02-28T08:42:26;8.80;99.90
29345;DHT22;16339;48.748;2.222;2024-02-28T08:44:54;8.80;99.90
29345;DHT22;16339;48.748;2.222;2024-02-28T08:47:25;8.90;99.90
29345;DHT22;16339;48.748;2.222;2024-02-28T08:49:57;9.00;99.90
29345;DHT22;16339;48.748;2.222;2024-02-28T08:52:25;9.00;99.90
29345;DHT22;16339;48.748;2.222;2024-02-28T08:54:54;9.10;99.90
29345;DHT22;16339;48.748;2.222;2024-02-28T08:57:23;9.20;99.90
29345;DHT22;16339;48.748;2.222;2024-02-28T08:59:51;9.30;99.90
29345;DHT22;16339;48.748;2.222;2024-02-28T09:02:20;9.30;99.90
29345;DHT22;16339;48.748;2.222;2024-02-28T09:04:49;9.30;99.90
29345;DHT22;16339;48.748;2.222;2024-02-28T09:07:25;9.40;99.90
29345;DHT22;16339;48.748;2.222;2024-02-28T09:09:53;9.50;99.90
29345;DHT22;16339;48.748;2.222;2024-02-28T09:12:22;9.50;99.90
29345;DHT22;16339;48.748;2.222;2024-02-28T09:14:51;9.60;99.90
29345;DHT22;16339;48.748;2.222;2024-02-28T09:17:23;9.60;99.90
29345;DHT22;16339;48.748;2.222;2024-02-28T09:19:52;9.60;99.90
29345;DHT22;16339;48.748;2.222;2024-02-28T09:22:24;9.70;99.90
29345;DHT22;16339;48.748;2.222;2024-02-28T09:24:52;9.80;99.90
29345;DHT22;16339;48.748;2.222;2024-02-28T09:27:21;9.80;99.90
29345;DHT22;16339;48.748;2.222;2024-02-28T09:29:50;9.80;99.90
29345;DHT22;16339;48.748;2.222;2024-02-28T09:32:19;9.90;99.90
29345;DHT22;16339;48.748;2.222;2024-02-28T09:34:47;10.00;99.90
29345;DHT22;16339;48.748;2.222;2024-02-28T09:37:16;10.10;99.90
29345;DHT22;16339;48.748;2.222;2024-02-28T09:39:49;10.10;99.90
29345;DHT22;16339;48.748;2.222;2024-02-28T09:42:18;10.20;99.90
29345;DHT22;16339;48.748;2.222;2024-02-28T09:44:47;10.40;99.90
29345;DHT22;16339;48.748;2.222;2024-02-28T09:47:16;10.40;99.90
29345;DHT22;16339;48.748;2.222;2024-02-28T09:49:47;10.60;99.90
29345;DHT22;16339;48.748;2.222;2024-02-28T09:52:18;10.60;99.90
29345;DHT22;16339;48.748;2.222;2024-02-28T09:54:50;10.80;99.90
29345;DHT22;16339;48.748;2.222;2024-02-28T09:57:18;10.90;99.90
29345;DHT22;16339;48.748;2.222;2024-02-28T09:59:54;10.90;99.90
29345;DHT22;16339;48.748;2.222;2024-02-28T10:02:23;11.00;99.90
29345;DHT22;16339;48.748;2.222;2024-02-28T10:04:53;11.00;99.90
29345;DHT22;16339;48.748;2.222;2024-02-28T10:07:23;11.10;99.90
29345;DHT22;16339;48.748;2.222;2024-02-28T10:09:54;11.10;99.90
29345;DHT22;16339;48.748;2.222;2024-02-28T10:12:22;11.20;99.90
29345;DHT22;16339;48.748;2.222;2024-02-28T10:14:51;11.10;99.90
29345;DHT22;16339;48.748;2.222;2024-02-28T10:17:23;11.10;99.90
29345;DHT22;16339;48.748;2.222;2024-02-28T10:19:52;11.10;99.90
29345;DHT22;16339;48.748;2.222;2024-02-28T10:22:20;11.20;99.90
29345;DHT22;16339;48.748;2.222;2024-02-28T10:25:00;11.30;99.90
29345;DHT22;16339;48.748;2.222;2024-02-28T10:27:32;11.30;99.90
29345;DHT22;16339;48.748;2.222;2024-02-28T10:30:01;11.30;99.90
29345;DHT22;16339;48.748;2.222;2024-02-28T10:32:31;11.40;99.90
29345;DHT22;16339;48.748;2.222;2024-02-28T10:35:01;11.50;99.90
29345;DHT22;16339;48.748;2.222;2024-02-28T10:37:30;11.40;99.90
29345;DHT22;16339;48.748;2.222;2024-02-28T10:40:05;11.30;99.90
29345;DHT22;16339;48.748;2.222;2024-02-28T10:42:35;11.30;99.90
29345;DHT22;16339;48.748;2.222;2024-02-28T10:45:07;11.30;99.90
29345;DHT22;16339;48.748;2.222;2024-02-28T10:47:40;11.10;99.90
29345;DHT22;16339;48.748;2.222;2024-02-28T10:50:09;11.20;99.90
29345;DHT22;16339;48.748;2.222;2024-02-28T10:52:43;11.30;99.90
29345;DHT22;16339;48.748;2.222;2024-02-28T10:55:21;11.40;99.90
29345;DHT22;16339;48.748;2.222;2024-02-28T10:57:59;11.40;99.90
29345;DHT22;16339;48.748;2.222;2024-02-28T11:00:30;11.50;99.90
29345;DHT22;16339;48.748;2.222;2024-02-28T11:03:00;11.50;99.90
29345;DHT22;16339;48.748;2.222;2024-02-28T11:05:36;11.50;99.90
29345;DHT22;16339;48.748;2.222;2024-02-28T11:08:08;11.40;99.90
29345;DHT22;16339;48.748;2.222;2024-02-28T11:10:43;11.40;99.90
29345;DHT22;16339;48.748;2.222;2024-02-28T11:13:21;11.50;99.90
29345;DHT22;16339;48.748;2.222;2024-02-28T11:15:50;11.60;99.90
29345;DHT22;16339;48.748;2.222;2024-02-28T11:18:21;11.50;99.90
29345;DHT22;16339;48.748;2.222;2024-02-28T11:20:50;11.50;99.90
29345;DHT22;16339;48.748;2.222;2024-02-28T11:23:20;11.70;99.90
29345;DHT22;16339;48.748;2.222;2024-02-28T11:25:51;11.70;99.90
29345;DHT22;16339;48.748;2.222;2024-02-28T11:28:20;11.80;99.90
29345;DHT22;16339;48.748;2.222;2024-02-28T11:30:50;11.80;99.90
29345;DHT22;16339;48.748;2.222;2024-02-28T11:33:18;11.80;99.90
29345;DHT22;16339;48.748;2.222;2024-02-28T11:35:55;11.80;99.90
29345;DHT22;16339;48.748;2.222;2024-02-28T11:38:24;11.80;99.90
29345;DHT22;16339;48.748;2.222;2024-02-28T11:40:56;11.80;99.90
29345;DHT22;16339;48.748;2.222;2024-02-28T11:43:24;11.70;99.90
29345;DHT22;16339;48.748;2.222;2024-02-28T11:45:53;11.50;99.90
29345;DHT22;16339;48.748;2.222;2024-02-28T11:48:25;11.60;99.90
29345;DHT22;16339;48.748;2.222;2024-02-28T11:50:53;11.60;99.90
29345;DHT22;16339;48.748;2.222;2024-02-28T11:53:22;11.60;99.90
29345;DHT22;16339;48.748;2.222;2024-02-28T11:55:55;11.60;99.90
29345;DHT22;16339;48.748;2.222;2024-02-28T11:58:24;11.50;99.90
29345;DHT22;16339;48.748;2.222;2024-02-28T12:00:53;11.50;99.90
29345;DHT22;16339;48.748;2.222;2024-02-28T12:03:22;11.50;99.90
29345;DHT22;16339;48.748;2.222;2024-02-28T12:05:51;11.50;99.90
29345;DHT22;16339;48.748;2.222;2024-02-28T12:08:20;11.60;99.90
29345;DHT22;16339;48.748;2.222;2024-02-28T12:10:49;11.60;99.90
29345;DHT22;16339;48.748;2.222;2024-02-28T12:13:23;11.60;99.90
29345;DHT22;16339;48.748;2.222;2024-02-28T12:15:52;11.60;99.90
29345;DHT22;16339;48.748;2.222;2024-02-28T12:18:20;11.70;99.90
29345;DHT22;16339;48.748;2.222;2024-02-28T12:20:49;11.70;99.90
29345;DHT22;16339;48.748;2.222;2024-02-28T12:23:17;11.70;99.90
29345;DHT22;16339;48.748;2.222;2024-02-28T12:25:46;11.60;99.90
29345;DHT22;16339;48.748;2.222;2024-02-28T12:28:15;11.60;99.90
29345;DHT22;16339;48.748;2.222;2024-02-28T12:30:46;11.50;99.90
29345;DHT22;16339;48.748;2.222;2024-02-28T12:33:15;11.50;99.90
29345;DHT22;16339;48.748;2.222;2024-02-28T12:35:44;11.50;99.90
29345;DHT22;16339;48.748;2.222;2024-02-28T12:38:12;11.60;99.90
29345;DHT22;16339;48.748;2.222;2024-02-28T12:40:41;11.60;99.90
29345;DHT22;16339;48.748;2.222;2024-02-28T12:43:10;11.80;99.90
29345;DHT22;16339;48.748;2.222;2024-02-28T12:45:40;11.80;99.90
29345;DHT22;16339;48.748;2.222;2024-02-28T12:48:11;11.90;99.90
29345;DHT22;16339;48.748;2.222;2024-02-28T12:50:40;12.00;99.90
29345;DHT22;16339;48.748;2.222;2024-02-28T12:53:08;12.10;99.90
29345;DHT22;16339;48.748;2.222;2024-02-28T12:55:37;12.30;99.90
29345;DHT22;16339;48.748;2.222;2024-02-28T12:58:06;12.40;99.90
29345;DHT22;16339;48.748;2.222;2024-02-28T13:00:34;12.40;99.90
29345;DHT22;16339;48.748;2.222;2024-02-28T13:03:03;12.60;99.90
29345;DHT22;16339;48.748;2.222;2024-02-28T13:05:35;12.70;99.90
29345;DHT22;16339;48.748;2.222;2024-02-28T13:08:04;12.90;99.90
29345;DHT22;16339;48.748;2.222;2024-02-28T13:10:32;13.00;99.90
29345;DHT22;16339;48.748;2.222;2024-02-28T13:13:06;13.10;99.90
29345;DHT22;16339;48.748;2.222;2024-02-28T13:15:35;13.10;99.90
29345;DHT22;16339;48.748;2.222;2024-02-28T13:18:04;13.00;99.90
29345;DHT22;16339;48.748;2.222;2024-02-28T13:20:37;13.10;99.90
29345;DHT22;16339;48.748;2.222;2024-02-28T13:23:06;13.10;99.90
29345;DHT22;16339;48.748;2.222;2024-02-28T13:25:35;13.00;99.90
29345;DHT22;16339;48.748;2.222;2024-02-28T13:28:04;13.00;99.90
29345;DHT22;16339;48.748;2.222;2024-02-28T13:30:33;13.00;99.90
29345;DHT22;16339;48.748;2.222;2024-02-28T13:33:03;13.00;99.90
29345;DHT22;16339;48.748;2.222;2024-02-28T13:35:32;13.00;99.90
29345;DHT22;16339;48.748;2.222;2024-02-28T13:38:03;13.00;99.90
29345;DHT22;16339;48.748;2.222;2024-02-28T13:40:32;13.00;99.90
29345;DHT22;16339;48.748;2.222;2024-02-28T13:43:01;13.00;99.90
29345;DHT22;16339;48.748;2.222;2024-02-28T13:45:30;12.90;99.90
29345;DHT22;16339;48.748;2.222;2024-02-28T13:47:58;12.80;99.90
29345;DHT22;16339;48.748;2.222;2024-02-28T13:50:27;12.80;99.90
29345;DHT22;16339;48.748;2.222;2024-02-28T13:52:58;12.90;99.90
29345;DHT22;16339;48.748;2.222;2024-02-28T13:55:29;12.80;99.90
29345;DHT22;16339;48.748;2.222;2024-02-28T13:57:58;12.90;99.90
29345;DHT22;16339;48.748;2.222;2024-02-28T14:00:26;12.90;99.90
29345;DHT22;16339;48.748;2.222;2024-02-28T14:02:55;12.90;99.90
29345;DHT22;16339;48.748;2.222;2024-02-28T14:05:23;12.90;99.90
29345;DHT22;16339;48.748;2.222;2024-02-28T14:07:52;13.00;99.90
29345;DHT22;16339;48.748;2.222;2024-02-28T14:10:21;13.10;99.90
29345;DHT22;16339;48.748;2.222;2024-02-28T14:12:52;13.20;99.90
29345;DHT22;16339;48.748;2.222;2024-02-28T14:15:21;13.10;99.90
29345;DHT22;16339;48.748;2.222;2024-02-28T14:17:50;13.20;99.90
29345;DHT22;16339;48.748;2.222;2024-02-28T14:20:19;13.00;99.90
29345;DHT22;16339;48.748;2.222;2024-02-28T14:22:48;13.10;99.90
29345;DHT22;16339;48.748;2.222;2024-02-28T14:25:17;13.10;99.90
29345;DHT22;16339;48.748;2.222;2024-02-28T14:27:47;13.00;99.90
29345;DHT22;16339;48.748;2.222;2024-02-28T14:30:18;13.20;99.90
29345;DHT22;16339;48.748;2.222;2024-02-28T14:32:48;13.20;99.90
29345;DHT22;16339;48.748;2.222;2024-02-28T14:35:17;13.20;99.90
29345;DHT22;16339;48.748;2.222;2024-02-28T14:37:45;13.30;99.90
29345;DHT22;16339;48.748;2.222;2024-02-28T14:40:14;13.20;99.90
29345;DHT22;16339;48.748;2.222;2024-02-28T14:42:43;13.10;99.90
29345;DHT22;16339;48.748;2.222;2024-02-28T14:45:14;12.90;99.90
29345;DHT22;16339;48.748;2.222;2024-02-28T14:47:45;12.90;99.90
29345;DHT22;16339;48.748;2.222;2024-02-28T14:50:14;12.80;99.90
29345;DHT22;16339;48.748;2.222;2024-02-28T14:52:43;12.80;99.90
29345;DHT22;16339;48.748;2.222;2024-02-28T14:55:11;12.80;99.90
29345;DHT22;16339;48.748;2.222;2024-02-28T14:57:40;12.90;99.90
29345;DHT22;16339;48.748;2.222;2024-02-28T15:00:10;12.80;99.90
29345;DHT22;16339;48.748;2.222;2024-02-28T15:02:39;12.80;99.90
29345;DHT22;16339;48.748;2.222;2024-02-28T15:05:11;12.90;99.90
29345;DHT22;16339;48.748;2.222;2024-02-28T15:07:41;12.90;99.90
29345;DHT22;16339;48.748;2.222;2024-02-28T15:10:10;12.80;99.90
29345;DHT22;16339;48.748;2.222;2024-02-28T15:12:39;12.70;99.90
29345;DHT22;16339;48.748;2.222;2024-02-28T15:15:08;12.70;99.90
29345;DHT22;16339;48.748;2.222;2024-02-28T15:17:37;12.40;99.90
29345;DHT22;16339;48.748;2.222;2024-02-28T15:20:10;12.30;99.90
29345;DHT22;16339;48.748;2.222;2024-02-28T15:22:39;12.20;99.90
29345;DHT22;16339;48.748;2.222;2024-02-28T15:25:09;12.30;99.90
29345;DHT22;16339;48.748;2.222;2024-02-28T15:27:38;12.20;99.90
29345;DHT22;16339;48.748;2.222;2024-02-28T15:30:08;12.30;99.90
29345;DHT22;16339;48.748;2.222;2024-02-28T15:32:36;12.30;99.90
29345;DHT22;16339;48.748;2.222;2024-02-28T15:35:10;12.50;99.90
29345;DHT22;16339;48.748;2.222;2024-02-28T15:37:39;12.10;99.90
29345;DHT22;16339;48.748;2.222;2024-02-28T15:40:08;12.20;99.90
29345;DHT22;16339;48.748;2.222;2024-02-28T15:42:37;12.20;99.90
29345;DHT22;16339;48.748;2.222;2024-02-28T15:45:06;12.30;99.90
29345;DHT22;16339;48.748;2.222;2024-02-28T15:47:35;12.50;99.90
29345;DHT22;16339;48.748;2.222;2024-02-28T15:50:04;12.60;99.90
29345;DHT22;16339;48.748;2.222;2024-02-28T15:52:38;12.70;99.90
29345;DHT22;16339;48.748;2.222;2024-02-28T15:55:06;12.70;99.90
29345;DHT22;16339;48.748;2.222;2024-02-28T15:57:37;12.80;99.90
29345;DHT22;16339;48.748;2.222;2024-02-28T16:00:06;12.90;99.90
29345;DHT22;16339;48.748;2.222;2024-02-28T16:02:35;13.00;99.90
29345;DHT22;16339;48.748;2.222;2024-02-28T16:05:04;13.10;99.90
29345;DHT22;16339;48.748;2.222;2024-02-28T16:07:33;13.10;99.90
29345;DHT22;16339;48.748;2.222;2024-02-28T16:10:05;12.80;99.90
29345;DHT22;16339;48.748;2.222;2024-02-28T16:12:34;12.80;99.90
29345;DHT22;16339;48.748;2.222;2024-02-28T16:15:04;12.70;99.90
29345;DHT22;16339;48.748;2.222;2024-02-28T16:17:33;12.70;99.90
29345;DHT22;16339;48.748;2.222;2024-02-28T16:20:02;12.70;99.90
29345;DHT22;16339;48.748;2.222;2024-02-28T16:22:32;12.70;99.90
29345;DHT22;16339;48.748;2.222;2024-02-28T16:25:04;12.60;99.90
29345;DHT22;16339;48.748;2.222;2024-02-28T16:27:33;12.60;99.90
29345;DHT22;16339;48.748;2.222;2024-02-28T16:30:02;12.50;99.90
29345;DHT22;16339;48.748;2.222;2024-02-28T16:32:32;12.60;99.90
29345;DHT22;16339;48.748;2.222;2024-02-28T16:35:01;12.60;99.90
29345;DHT22;16339;48.748;2.222;2024-02-28T16:37:30;12.60;99.90
29345;DHT22;16339;48.748;2.222;2024-02-28T16:39:58;12.50;99.90
29345;DHT22;16339;48.748;2.222;2024-02-28T16:42:30;12.60;99.90
29345;DHT22;16339;48.748;2.222;2024-02-28T16:44:58;12.50;99.90
29345;DHT22;16339;48.748;2.222;2024-02-28T16:47:28;12.60;99.90
29345;DHT22;16339;48.748;2.222;2024-02-28T16:49:57;12.60;99.90
29345;DHT22;16339;48.748;2.222;2024-02-28T16:52:26;12.50;99.90
29345;DHT22;16339;48.748;2.222;2024-02-28T16:54:55;12.50;99.90
29345;DHT22;16339;48.748;2.222;2024-02-28T16:57:23;12.50;99.90
29345;DHT22;16339;48.748;2.222;2024-02-28T16:59:55;12.60;99.90
29345;DHT22;16339;48.748;2.222;2024-02-28T17:02:23;12.60;99.90
29345;DHT22;16339;48.748;2.222;2024-02-28T17:04:52;12.60;99.90
29345;DHT22;16339;48.748;2.222;2024-02-28T17:07:21;12.60;99.90
29345;DHT22;16339;48.748;2.222;2024-02-28T17:09:51;12.60;99.90
29345;DHT22;16339;48.748;2.222;2024-02-28T17:12:20;12.60;99.90
29345;DHT22;16339;48.748;2.222;2024-02-28T17:14:49;12.60;99.90
29345;DHT22;16339;48.748;2.222;2024-02-28T17:17:22;12.60;99.90
29345;DHT22;16339;48.748;2.222;2024-02-28T17:19:52;12.60;99.90
29345;DHT22;16339;48.748;2.222;2024-02-28T17:22:21;12.60;99.90
29345;DHT22;16339;48.748;2.222;2024-02-28T17:24:50;12.60;99.90
29345;DHT22;16339;48.748;2.222;2024-02-28T17:27:19;12.60;99.90
29345;DHT22;16339;48.748;2.222;2024-02-28T17:29:48;12.50;99.90
29345;DHT22;16339;48.748;2.222;2024-02-28T17:32:16;12.60;99.90
29345;DHT22;16339;48.748;2.222;2024-02-28T17:34:47;12.50;99.90
29345;DHT22;16339;48.748;2.222;2024-02-28T17:37:18;12.50;99.90
29345;DHT22;16339;48.748;2.222;2024-02-28T17:39:48;12.50;99.90
29345;DHT22;16339;48.748;2.222;2024-02-28T17:42:18;12.50;99.90
29345;DHT22;16339;48.748;2.222;2024-02-28T17:44:47;12.30;99.90
29345;DHT22;16339;48.748;2.222;2024-02-28T17:47:17;12.40;99.90
29345;DHT22;16339;48.748;2.222;2024-02-28T17:49:48;12.40;99.90
29345;DHT22;16339;48.748;2.222;2024-02-28T17:52:17;12.40;99.90
29345;DHT22;16339;48.748;2.222;2024-02-28T17:54:46;12.40;99.90
29345;DHT22;16339;48.748;2.222;2024-02-28T17:57:21;12.40;99.90
29345;DHT22;16339;48.748;2.222;2024-02-28T17:59:49;12.30;99.90
29345;DHT22;16339;48.748;2.222;2024-02-28T18:02:18;12.40;99.90
29345;DHT22;16339;48.748;2.222;2024-02-28T18:04:52;12.30;99.90
29345;DHT22;16339;48.748;2.222;2024-02-28T18:07:21;12.30;99.90
29345;DHT22;16339;48.748;2.222;2024-02-28T18:09:50;12.30;99.90
29345;DHT22;16339;48.748;2.222;2024-02-28T18:12:18;12.20;99.90
29345;DHT22;16339;48.748;2.222;2024-02-28T18:14:47;12.20;99.90
29345;DHT22;16339;48.748;2.222;2024-02-28T18:17:16;12.10;99.90
29345;DHT22;16339;48.748;2.222;2024-02-28T18:19:46;12.20;99.90
29345;DHT22;16339;48.748;2.222;2024-02-28T18:22:17;12.10;99.90
29345;DHT22;16339;48.748;2.222;2024-02-28T18:24:46;12.10;99.90
29345;DHT22;16339;48.748;2.222;2024-02-28T18:27:16;12.10;99.90
29345;DHT22;16339;48.748;2.222;2024-02-28T18:29:45;12.10;99.90
29345;DHT22;16339;48.748;2.222;2024-02-28T18:32:14;12.00;99.90
29345;DHT22;16339;48.748;2.222;2024-02-28T18:34:42;12.00;99.90
29345;DHT22;16339;48.748;2.222;2024-02-28T18:37:13;12.00;99.90
29345;DHT22;16339;48.748;2.222;2024-02-28T18:39:44;11.90;99.90
29345;DHT22;16339;48.748;2.222;2024-02-28T18:42:12;11.90;99.90
29345;DHT22;16339;48.748;2.222;2024-02-28T18:44:41;11.90;99.90
29345;DHT22;16339;48.748;2.222;2024-02-28T18:47:10;11.90;99.90
29345;DHT22;16339;48.748;2.222;2024-02-28T18:49:39;11.80;99.90
29345;DHT22;16339;48.748;2.222;2024-02-28T18:52:08;11.90;99.90
29345;DHT22;16339;48.748;2.222;2024-02-28T18:54:37;11.80;99.90
29345;DHT22;16339;48.748;2.222;2024-02-28T18:57:08;11.80;99.90
29345;DHT22;16339;48.748;2.222;2024-02-28T18:59:37;11.80;99.90
29345;DHT22;16339;48.748;2.222;2024-02-28T19:02:06;11.80;99.90
29345;DHT22;16339;48.748;2.222;2024-02-28T19:04:35;11.70;99.90
29345;DHT22;16339;48.748;2.222;2024-02-28T19:07:04;11.70;99.90
29345;DHT22;16339;48.748;2.222;2024-02-28T19:09:34;11.70;99.90
29345;DHT22;16339;48.748;2.222;2024-02-28T19:12:03;11.70;99.90
29345;DHT22;16339;48.748;2.222;2024-02-28T19:14:36;11.70;99.90
29345;DHT22;16339;48.748;2.222;2024-02-28T19:17:04;11.60;99.90
29345;DHT22;16339;48.748;2.222;2024-02-28T19:19:33;11.60;99.90
29345;DHT22;16339;48.748;2.222;2024-02-28T19:22:02;11.60;99.90
29345;DHT22;16339;48.748;2.222;2024-02-28T19:24:33;11.60;99.90
29345;DHT22;16339;48.748;2.222;2024-02-28T19:27:02;11.60;99.90
29345;DHT22;16339;48.748;2.222;2024-02-28T19:29:31;11.60;99.90
29345;DHT22;16339;48.748;2.222;2024-02-28T19:32:02;11.60;99.90
29345;DHT22;16339;48.748;2.222;2024-02-28T19:34:31;11.50;99.90
29345;DHT22;16339;48.748;2.222;2024-02-28T19:37:00;11.50;99.90
29345;DHT22;16339;48.748;2.222;2024-02-28T19:39:30;11.50;99.90
29345;DHT22;16339;48.748;2.222;2024-02-28T19:41:59;11.50;99.90
29345;DHT22;16339;48.748;2.222;2024-02-28T19:44:28;11.50;99.90
29345;DHT22;16339;48.748;2.222;2024-02-28T19:46:57;11.40;99.90
29345;DHT22;16339;48.748;2.222;2024-02-28T19:49:28;11.40;99.90
29345;DHT22;16339;48.748;2.222;2024-02-28T19:51:59;11.40;99.90
29345;DHT22;16339;48.748;2.222;2024-02-28T19:54:30;11.30;99.90
29345;DHT22;16339;48.748;2.222;2024-02-28T19:56:59;11.30;99.90
29345;DHT22;16339;48.748;2.222;2024-02-28T19:59:28;11.30;99.90
29345;DHT22;16339;48.748;2.222;2024-02-28T20:01:57;11.20;99.90
29345;DHT22;16339;48.748;2.222;2024-02-28T20:04:28;11.20;99.90
29345;DHT22;16339;48.748;2.222;2024-02-28T20:06:57;11.10;99.90
29345;DHT22;16339;48.748;2.222;2024-02-28T20:09:27;11.10;99.90
29345;DHT22;16339;48.748;2.222;2024-02-28T20:12:00;11.10;99.90
29345;DHT22;16339;48.748;2.222;2024-02-28T20:14:30;11.10;99.90
29345;DHT22;16339;48.748;2.222;2024-02-28T20:16:59;11.00;99.90
29345;DHT22;16339;48.748;2.222;2024-02-28T20:19:31;11.00;99.90
29345;DHT22;16339;48.748;2.222;2024-02-28T20:22:00;11.00;99.90
29345;DHT22;16339;48.748;2.222;2024-02-28T20:24:29;11.00;99.90
29345;DHT22;16339;48.748;2.222;2024-02-28T20:26:58;10.90;99.90
29345;DHT22;16339;48.748;2.222;2024-02-28T20:29:32;10.90;99.90
29345;DHT22;16339;48.748;2.222;2024-02-28T20:32:00;10.90;99.90
29345;DHT22;16339;48.748;2.222;2024-02-28T20:34:32;10.90;99.90
29345;DHT22;16339;48.748;2.222;2024-02-28T20:37:01;10.80;99.90
29345;DHT22;16339;48.748;2.222;2024-02-28T20:39:29;10.80;99.90
29345;DHT22;16339;48.748;2.222;2024-02-28T20:41:58;10.80;99.90
29345;DHT22;16339;48.748;2.222;2024-02-28T20:44:28;10.80;99.90
29345;DHT22;16339;48.748;2.222;2024-02-28T20:46:57;10.90;99.90
29345;DHT22;16339;48.748;2.222;2024-02-28T20:49:34;10.80;99.90
29345;DHT22;16339;48.748;2.222;2024-02-28T20:52:04;10.80;99.90
29345;DHT22;16339;48.748;2.222;2024-02-28T20:54:33;10.80;99.90
29345;DHT22;16339;48.748;2.222;2024-02-28T20:57:02;10.90;99.90
29345;DHT22;16339;48.748;2.222;2024-02-28T20:59:31;10.90;99.90
29345;DHT22;16339;48.748;2.222;2024-02-28T21:02:00;10.90;99.90
29345;DHT22;16339;48.748;2.222;2024-02-28T21:04:28;11.00;99.90
29345;DHT22;16339;48.748;2.222;2024-02-28T21:07:01;11.10;99.90
29345;DHT22;16339;48.748;2.222;2024-02-28T21:09:30;11.00;99.90
29345;DHT22;16339;48.748;2.222;2024-02-28T21:12:02;11.10;99.90
29345;DHT22;16339;48.748;2.222;2024-02-28T21:14:31;11.20;99.90
29345;DHT22;16339;48.748;2.222;2024-02-28T21:17:06;11.20;99.90
29345;DHT22;16339;48.748;2.222;2024-02-28T21:19:40;11.20;99.90
29345;DHT22;16339;48.748;2.222;2024-02-28T21:22:11;11.20;99.90
29345;DHT22;16339;48.748;2.222;2024-02-28T21:24:46;11.30;99.90
29345;DHT22;16339;48.748;2.222;2024-02-28T21:27:16;11.30;99.90
29345;DHT22;16339;48.748;2.222;2024-02-28T21:29:46;11.30;99.90
29345;DHT22;16339;48.748;2.222;2024-02-28T21:32:14;11.30;99.90
29345;DHT22;16339;48.748;2.222;2024-02-28T21:34:49;11.40;99.90
29345;DHT22;16339;48.748;2.222;2024-02-28T21:37:23;11.40;99.90
29345;DHT22;16339;48.748;2.222;2024-02-28T21:39:52;11.40;99.90
29345;DHT22;16339;48.748;2.222;2024-02-28T21:42:22;11.40;99.90